createdAt,value
2017-07-11T00:01:58.305Z,90.83
2017-07-11T00:04:30.842Z,91.29
2017-07-11T00:07:03.117Z,91.54
2017-07-11T00:09:35.396Z,91.74
2017-07-11T00:12:07.791Z,91.64
2017-07-11T00:14:40.085Z,91.80
2017-07-11T00:17:12.521Z,91.74
2017-07-11T00:19:44.917Z,91.91
2017-07-11T00:22:17.589Z,91.79
2017-07-11T00:24:59.993Z,91.76
2017-07-11T00:27:32.207Z,91.80
2017-07-11T00:30:05.567Z,91.97
2017-07-11T00:32:37.941Z,92.12
2017-07-11T00:35:10.694Z,92.09
2017-07-11T00:37:43.080Z,92.09
2017-07-11T00:40:16.245Z,91.89
2017-07-11T00:42:48.565Z,92.44
2017-07-11T00:45:21.079Z,92.21
2017-07-11T00:47:54.698Z,92.19
2017-07-11T00:50:27.086Z,92.18
2017-07-11T00:52:59.176Z,92.30
2017-07-11T00:55:31.687Z,92.18
2017-07-11T00:58:04.016Z,92.11
2017-07-11T01:00:36.890Z,92.05
2017-07-11T01:03:08.886Z,91.90
2017-07-11T01:05:42.352Z,92.01
2017-07-11T01:08:14.694Z,91.72
2017-07-11T01:10:47.086Z,91.63
2017-07-11T01:13:19.432Z,91.68
2017-07-11T01:15:51.934Z,91.64
2017-07-11T01:18:24.150Z,91.39
2017-07-11T01:20:56.489Z,91.25
2017-07-11T01:23:28.884Z,91.65
2017-07-11T01:26:01.346Z,91.46
2017-07-11T01:28:33.542Z,91.66
2017-07-11T01:31:06.025Z,91.40
2017-07-11T01:33:38.289Z,91.24
2017-07-11T01:36:10.629Z,91.24
2017-07-11T01:38:43.057Z,90.87
2017-07-11T01:41:15.298Z,90.72
2017-07-11T01:43:47.459Z,90.52
2017-07-11T01:46:19.840Z,90.57
2017-07-11T01:48:52.226Z,90.25
2017-07-11T01:51:24.640Z,90.36
2017-07-11T01:53:57.047Z,90.50
2017-07-11T01:56:29.432Z,90.50
2017-07-11T01:59:01.933Z,90.34
2017-07-11T02:01:35.202Z,90.33
2017-07-11T02:04:07.670Z,90.48
2017-07-11T02:06:40.030Z,90.48
2017-07-11T02:09:12.347Z,90.37
2017-07-11T02:11:44.806Z,90.37
2017-07-11T02:14:17.357Z,90.26
2017-07-11T02:16:49.873Z,90.34
2017-07-11T02:19:22.148Z,90.29
2017-07-11T02:21:54.913Z,90.50
2017-07-11T02:24:26.782Z,90.31
2017-07-11T02:26:59.102Z,90.22
2017-07-11T02:29:32.201Z,90.26
2017-07-11T02:32:04.800Z,90.26
2017-07-11T02:34:37.295Z,90.61
2017-07-11T02:37:09.642Z,91.28
2017-07-11T02:39:41.967Z,91.55
2017-07-11T02:42:14.541Z,91.33
2017-07-11T02:44:46.795Z,91.15
2017-07-11T02:47:19.165Z,90.96
2017-07-11T02:49:51.548Z,91.09
2017-07-11T02:52:23.817Z,91.00
2017-07-11T02:54:56.173Z,91.01
2017-07-11T02:57:28.546Z,90.88
2017-07-11T03:00:00.872Z,91.07
2017-07-11T03:02:33.224Z,91.14
2017-07-11T03:05:05.628Z,91.12
2017-07-11T03:07:38.352Z,91.03
2017-07-11T03:10:10.414Z,90.96
2017-07-11T03:12:43.668Z,91.02
2017-07-11T03:15:16.082Z,91.11
2017-07-11T03:17:48.522Z,91.02
2017-07-11T03:20:20.874Z,90.88
2017-07-11T03:22:53.264Z,91.07
2017-07-11T03:25:25.548Z,91.11
2017-07-11T03:27:57.976Z,90.92
2017-07-11T03:30:30.353Z,91.10
2017-07-11T03:33:03.792Z,91.02
2017-07-11T03:35:36.105Z,91.05
2017-07-11T03:38:08.460Z,91.01
2017-07-11T03:40:40.712Z,91.33
2017-07-11T03:43:13.102Z,91.80
2017-07-11T03:45:45.485Z,91.67
2017-07-11T03:48:18.650Z,91.60
2017-07-11T03:50:51.193Z,91.59
2017-07-11T03:53:23.592Z,91.58
2017-07-11T03:55:56.041Z,91.64
2017-07-11T03:58:28.483Z,92.04
2017-07-11T04:01:00.864Z,92.00
2017-07-11T04:03:34.090Z,91.98
2017-07-11T04:06:06.641Z,91.94
2017-07-11T04:08:39.102Z,91.50
2017-07-11T04:11:11.536Z,91.17
2017-07-11T04:13:43.931Z,90.93
2017-07-11T04:16:16.330Z,90.78
2017-07-11T04:18:49.551Z,90.77
2017-07-11T04:21:22.016Z,90.65
2017-07-11T04:23:55.333Z,90.73
2017-07-11T04:26:27.660Z,90.71
2017-07-11T04:29:00.084Z,90.64
2017-07-11T04:31:32.428Z,90.13
2017-07-11T04:34:05.005Z,88.08
2017-07-11T04:36:37.369Z,85.95
2017-07-11T04:39:09.762Z,81.86
2017-07-11T04:41:42.209Z,80.50
2017-07-11T04:44:14.618Z,78.39
2017-07-11T04:46:46.903Z,78.93
2017-07-11T04:49:19.340Z,81.29
2017-07-11T04:51:51.626Z,83.24
2017-07-11T04:54:24.093Z,84.77
2017-07-11T04:56:56.546Z,85.38
2017-07-11T04:59:28.916Z,86.11
2017-07-11T05:02:01.359Z,86.89
2017-07-11T05:04:33.823Z,87.26
2017-07-11T05:07:06.152Z,87.35
2017-07-11T05:09:38.690Z,87.56
2017-07-11T05:12:11.013Z,87.76
2017-07-11T05:14:43.337Z,87.95
2017-07-11T05:17:15.692Z,88.08
2017-07-11T05:19:48.025Z,88.14
2017-07-11T05:22:20.401Z,88.43
2017-07-11T05:24:53.638Z,88.47
2017-07-11T05:27:25.999Z,88.48
2017-07-11T05:29:58.285Z,88.20
2017-07-11T05:32:30.733Z,88.29
2017-07-11T05:35:03.047Z,87.89
2017-07-11T05:37:35.177Z,87.20
2017-07-11T05:40:07.444Z,85.99
2017-07-11T05:42:39.815Z,85.28
2017-07-11T05:45:12.090Z,84.95
2017-07-11T05:47:44.424Z,84.53
2017-07-11T05:50:17.861Z,83.59
2017-07-11T05:52:50.205Z,83.38
2017-07-11T05:55:22.681Z,82.18
2017-07-11T05:57:55.089Z,82.72
2017-07-11T06:00:27.509Z,83.23
2017-07-11T06:02:59.897Z,83.10
2017-07-11T06:05:32.397Z,83.50
2017-07-11T06:08:04.847Z,83.60
2017-07-11T06:10:37.248Z,84.20
2017-07-11T06:13:09.544Z,84.12
2017-07-11T06:15:41.913Z,84.38
2017-07-11T06:18:14.343Z,83.80
2017-07-11T06:20:46.720Z,83.86
2017-07-11T06:23:19.108Z,83.42
2017-07-11T06:25:52.281Z,83.78
2017-07-11T06:28:24.742Z,82.81
2017-07-11T06:30:58.010Z,82.31
2017-07-11T06:33:30.621Z,80.39
2017-07-11T06:36:03.204Z,77.87
2017-07-11T06:38:35.654Z,72.24
2017-07-11T06:41:08.305Z,72.78
2017-07-11T06:43:40.381Z,73.19
2017-07-11T06:46:13.112Z,72.38
2017-07-11T06:48:45.232Z,69.16
2017-07-11T06:51:17.488Z,63.60
2017-07-11T06:53:49.960Z,61.20
2017-07-11T06:56:22.424Z,58.86
2017-07-11T06:58:54.756Z,56.30
2017-07-11T07:01:27.567Z,55.55
2017-07-11T07:03:59.613Z,58.19
2017-07-11T07:06:31.988Z,58.62
2017-07-11T07:09:04.389Z,59.52
2017-07-11T07:11:36.786Z,59.99
2017-07-11T07:14:09.341Z,59.46
2017-07-11T07:16:41.637Z,58.59
2017-07-11T07:19:13.876Z,57.01
2017-07-11T07:21:46.362Z,56.45
2017-07-11T07:24:18.768Z,57.25
2017-07-11T07:26:51.525Z,57.55
2017-07-11T07:29:24.338Z,54.92
2017-07-11T07:31:56.917Z,52.72
2017-07-11T07:34:28.885Z,55.60
2017-07-11T07:37:01.534Z,53.57
2017-07-11T07:39:33.776Z,56.50
2017-07-11T07:42:06.157Z,57.84
2017-07-11T07:44:38.667Z,56.29
2017-07-11T07:47:11.024Z,53.11
2017-07-11T07:49:43.340Z,54.33
2017-07-11T07:52:15.713Z,54.85
2017-07-11T07:54:48.116Z,53.13
2017-07-11T07:57:20.522Z,53.74
2017-07-11T07:59:52.973Z,55.28
2017-07-11T08:02:25.529Z,53.88
2017-07-11T08:04:57.958Z,51.16
2017-07-11T08:07:30.317Z,48.67
2017-07-11T08:10:02.768Z,46.92
2017-07-11T08:12:35.485Z,49.54
2017-07-11T08:15:07.450Z,54.13
2017-07-11T08:17:39.894Z,57.33
2017-07-11T08:20:12.465Z,59.03
2017-07-11T08:22:44.602Z,60.65
2017-07-11T08:25:17.013Z,62.55
2017-07-11T08:27:49.417Z,62.42
2017-07-11T08:30:21.650Z,61.60
2017-07-11T08:32:55.138Z,61.46
2017-07-11T08:35:27.472Z,63.37
2017-07-11T08:38:00.005Z,63.18
2017-07-11T08:40:32.399Z,62.71
2017-07-11T08:43:04.784Z,63.59
2017-07-11T08:45:37.069Z,64.38
2017-07-11T08:48:09.560Z,65.70
2017-07-11T08:50:41.845Z,66.40
2017-07-11T08:53:14.567Z,67.26
2017-07-11T08:55:46.777Z,68.16
2017-07-11T08:58:18.906Z,68.88
2017-07-11T09:00:51.289Z,68.17
2017-07-11T09:03:23.749Z,67.39
2017-07-11T09:05:56.244Z,67.01
2017-07-11T09:08:28.616Z,67.26
2017-07-11T09:11:00.970Z,67.27
2017-07-11T09:13:33.347Z,67.51
2017-07-11T09:16:05.721Z,67.95
2017-07-11T09:18:38.065Z,68.47
2017-07-11T09:21:10.349Z,68.89
2017-07-11T09:23:43.131Z,69.59
2017-07-11T09:26:15.202Z,69.76
2017-07-11T09:28:47.574Z,69.65
2017-07-11T09:31:19.939Z,69.49
2017-07-11T09:33:52.456Z,69.73
2017-07-11T09:36:24.901Z,70.29
2017-07-11T09:38:57.169Z,70.90
2017-07-11T09:41:29.845Z,71.12
2017-07-11T09:44:01.840Z,71.07
2017-07-11T09:46:34.193Z,71.29
2017-07-11T09:49:06.684Z,71.62
2017-07-11T09:51:39.193Z,71.97
2017-07-11T09:54:11.592Z,72.20
2017-07-11T09:56:44.248Z,72.29
2017-07-11T09:59:17.486Z,72.10
2017-07-11T10:01:49.999Z,70.86
2017-07-11T10:04:22.609Z,70.38
2017-07-11T10:06:55.025Z,70.87
2017-07-11T10:09:27.237Z,70.66
2017-07-11T10:12:00.055Z,70.91
2017-07-11T10:14:33.133Z,71.85
2017-07-11T10:17:05.489Z,71.59
2017-07-11T10:19:37.902Z,70.89
2017-07-11T10:22:10.388Z,71.36
2017-07-11T10:24:42.873Z,71.25
2017-07-11T10:27:15.229Z,71.45
2017-07-11T10:29:47.658Z,71.36
2017-07-11T10:45:25.288Z,66.41
2017-07-11T10:47:57.518Z,66.86
2017-07-11T10:50:29.733Z,65.40
2017-07-11T10:53:02.211Z,64.67
2017-07-11T10:55:34.449Z,61.86
2017-07-11T10:58:07.033Z,59.83
2017-07-11T11:00:39.891Z,59.08
2017-07-11T11:03:12.613Z,58.23
2017-07-11T11:05:46.036Z,56.44
2017-07-11T11:08:18.544Z,55.24
2017-07-11T11:10:51.053Z,56.63
2017-07-11T11:13:23.406Z,56.45
2017-07-11T11:15:55.717Z,55.29
2017-07-11T11:18:28.281Z,53.55
2017-07-11T11:21:00.473Z,53.73
2017-07-11T11:23:32.934Z,52.39
2017-07-11T11:26:05.339Z,50.81
2017-07-11T11:28:38.593Z,50.90
2017-07-11T11:31:11.115Z,52.86
2017-07-11T11:33:43.766Z,53.63
2017-07-11T11:36:15.945Z,55.02
2017-07-11T11:38:48.513Z,55.09
2017-07-11T11:41:20.684Z,56.52
2017-07-11T11:43:53.363Z,57.37
2017-07-11T11:46:25.938Z,55.02
2017-07-11T11:48:57.982Z,52.63
2017-07-11T11:51:30.352Z,53.44
2017-07-11T11:54:03.085Z,52.94
2017-07-11T11:56:35.792Z,53.02
2017-07-11T11:59:08.730Z,52.80
2017-07-11T12:01:41.054Z,50.79
2017-07-11T12:04:13.244Z,51.00
2017-07-11T12:06:45.584Z,48.42
2017-07-11T12:09:17.914Z,46.57
2017-07-11T12:11:50.301Z,49.04
2017-07-11T12:14:22.636Z,47.68
2017-07-11T12:16:54.973Z,47.56
2017-07-11T12:19:27.325Z,45.41
2017-07-11T12:21:59.669Z,43.24
2017-07-11T12:24:32.040Z,45.09
2017-07-11T12:27:04.413Z,46.04
2017-07-11T12:29:36.838Z,47.52
2017-07-11T12:32:09.192Z,48.32
2017-07-11T12:34:41.421Z,49.40
2017-07-11T12:37:13.862Z,49.17
2017-07-11T12:39:46.341Z,47.68
2017-07-11T12:42:18.692Z,48.15
2017-07-11T12:44:51.945Z,49.62
2017-07-11T12:47:24.429Z,49.47
2017-07-11T12:49:56.844Z,49.91
2017-07-11T12:52:29.321Z,50.11
2017-07-11T12:55:01.721Z,49.92
2017-07-11T12:57:34.120Z,47.20
2017-07-11T13:00:06.639Z,46.84
2017-07-11T13:02:39.060Z,45.93
2017-07-11T13:05:11.446Z,47.42
2017-07-11T13:07:43.786Z,48.03
2017-07-11T13:10:17.437Z,46.57
2017-07-11T13:12:49.492Z,44.83
2017-07-11T13:15:21.901Z,43.67
2017-07-11T13:17:54.258Z,44.70
2017-07-11T13:20:26.693Z,42.71
2017-07-11T13:22:59.015Z,42.41
2017-07-11T13:25:31.292Z,42.07
2017-07-11T13:28:03.641Z,41.62
2017-07-11T13:30:35.953Z,42.51
2017-07-11T13:33:08.380Z,42.82
2017-07-11T13:35:40.784Z,43.72
2017-07-11T13:38:13.808Z,40.64
2017-07-11T13:40:46.545Z,41.88
2017-07-11T13:43:18.858Z,42.57
2017-07-11T13:45:52.098Z,42.66
2017-07-11T13:48:24.573Z,43.03
2017-07-11T13:50:56.913Z,41.48
2017-07-11T13:53:29.432Z,43.63
2017-07-11T13:56:01.916Z,44.12
2017-07-11T13:58:34.276Z,43.25
2017-07-11T14:01:06.801Z,43.85
2017-07-11T14:03:39.254Z,43.93
2017-07-11T14:06:11.730Z,44.51
2017-07-11T14:08:44.170Z,42.26
2017-07-11T14:11:16.614Z,42.49
2017-07-11T14:13:49.036Z,43.96
2017-07-11T14:16:21.425Z,43.26
2017-07-11T14:18:53.894Z,43.53
2017-07-11T14:21:26.194Z,43.86
2017-07-11T14:23:58.620Z,44.38
2017-07-11T14:26:31.126Z,42.87
2017-07-11T14:29:03.480Z,42.02
2017-07-11T14:31:35.876Z,43.09
2017-07-11T14:34:08.214Z,43.61
2017-07-11T14:36:40.625Z,41.80
2017-07-11T14:39:12.955Z,42.85
2017-07-11T14:41:46.192Z,41.97
2017-07-11T14:44:18.669Z,42.95
2017-07-11T14:46:52.032Z,43.49
2017-07-11T14:49:25.366Z,43.54
2017-07-11T14:51:57.969Z,43.53
2017-07-11T14:54:30.310Z,43.91
2017-07-11T14:57:02.762Z,42.69
2017-07-11T14:59:35.194Z,42.86
2017-07-11T15:02:07.513Z,43.37
2017-07-11T15:04:39.977Z,44.10
2017-07-11T15:07:12.594Z,44.14
2017-07-11T15:09:45.071Z,43.34
2017-07-11T15:12:17.523Z,44.39
2017-07-11T15:14:50.021Z,44.87
2017-07-11T15:17:22.657Z,45.48
2017-07-11T15:19:54.728Z,46.31
2017-07-11T15:22:27.212Z,51.25
2017-07-11T15:24:59.674Z,54.83
2017-07-11T15:27:32.105Z,58.48
2017-07-11T15:30:04.930Z,61.57
2017-07-11T15:32:37.034Z,65.78
2017-07-11T15:35:09.413Z,69.19
2017-07-11T15:37:42.058Z,71.58
2017-07-11T15:40:14.036Z,74.31
2017-07-11T15:42:47.490Z,75.48
2017-07-11T15:45:19.873Z,77.28
2017-07-11T15:47:52.227Z,78.01
2017-07-11T15:50:24.548Z,78.78
2017-07-11T15:52:56.933Z,79.03
2017-07-11T15:55:29.181Z,79.97
2017-07-11T15:58:01.458Z,79.27
2017-07-11T16:00:33.923Z,79.26
2017-07-11T16:03:06.380Z,79.19
2017-07-11T16:05:39.380Z,79.47
2017-07-11T16:08:12.823Z,78.88
2017-07-11T16:10:45.452Z,78.50
2017-07-11T16:13:17.946Z,78.84
2017-07-11T16:15:50.214Z,78.50
2017-07-11T16:18:22.738Z,77.50
2017-07-11T16:20:55.082Z,78.20
2017-07-11T16:23:28.180Z,77.40
2017-07-11T16:26:00.788Z,77.22
2017-07-11T16:28:33.209Z,76.57
2017-07-11T16:31:05.559Z,77.23
2017-07-11T16:33:38.029Z,78.28
2017-07-11T16:36:11.549Z,77.20
2017-07-11T16:38:43.757Z,77.00
2017-07-11T16:41:16.158Z,76.92
2017-07-11T16:43:48.536Z,76.52
2017-07-11T16:46:20.931Z,76.17
2017-07-11T16:48:53.385Z,75.69
2017-07-11T18:13:35.438Z,73.66
2017-07-11T18:16:07.832Z,73.37
2017-07-11T18:18:40.251Z,73.43
2017-07-11T18:21:12.622Z,73.87
2017-07-11T18:23:46.055Z,73.66
2017-07-11T18:26:18.609Z,74.28
2017-07-11T18:28:51.077Z,74.62
2017-07-11T18:31:23.381Z,75.07
2017-07-11T18:33:55.652Z,75.31
2017-07-11T18:36:28.017Z,74.99
2017-07-11T18:39:00.401Z,75.36
2017-07-11T18:41:32.682Z,75.23
2017-07-11T18:44:05.084Z,75.30
2017-07-11T18:46:37.539Z,75.49
2017-07-11T18:49:18.070Z,75.64
2017-07-11T18:51:50.500Z,75.91
2017-07-11T18:54:23.020Z,76.10
2017-07-11T18:56:57.296Z,76.17
2017-07-11T18:59:30.007Z,75.89
2017-07-11T19:02:02.110Z,76.18
2017-07-11T19:04:34.500Z,76.74
2017-07-11T19:07:07.009Z,76.65
2017-07-11T19:09:39.395Z,76.18
2017-07-11T19:12:11.784Z,76.53
2017-07-11T19:14:46.033Z,76.82
2017-07-11T19:17:18.452Z,77.41
2017-07-11T19:19:50.772Z,78.20
2017-07-11T19:22:23.269Z,78.11
2017-07-11T19:24:55.444Z,77.98
2017-07-11T19:27:27.669Z,78.35
2017-07-11T19:30:00.389Z,78.50
2017-07-11T19:32:32.692Z,79.02
2017-07-11T19:35:05.235Z,79.14
2017-07-11T19:37:38.522Z,78.99
2017-07-11T19:40:10.850Z,79.27
2017-07-11T19:42:43.206Z,79.11
2017-07-11T19:45:15.624Z,79.12
2017-07-11T19:47:47.952Z,78.63
2017-07-11T19:50:20.217Z,78.71
2017-07-11T19:52:52.493Z,78.70
2017-07-11T19:55:26.027Z,78.45
2017-07-11T19:57:58.490Z,79.09
2017-07-11T20:00:30.636Z,78.98
2017-07-11T20:03:03.031Z,78.88
2017-07-11T20:05:35.364Z,79.14
2017-07-11T20:08:07.670Z,79.70
2017-07-11T20:10:40.005Z,79.73
2017-07-11T20:13:13.386Z,79.85
2017-07-11T20:15:46.077Z,80.52
2017-07-11T20:18:18.395Z,80.74
2017-07-11T20:20:50.884Z,80.40
2017-07-11T20:23:23.224Z,80.47
2017-07-11T20:25:55.564Z,80.91
2017-07-11T20:28:27.905Z,80.94
2017-07-11T20:31:00.672Z,81.58
2017-07-11T20:33:32.644Z,81.42
2017-07-11T20:36:05.372Z,81.63
2017-07-11T20:38:37.849Z,81.34
2017-07-11T20:41:09.987Z,81.49
2017-07-11T20:43:42.569Z,81.43
2017-07-11T20:46:14.671Z,81.66
2017-07-11T20:48:47.080Z,81.87
2017-07-11T20:51:20.665Z,82.03
2017-07-11T20:53:53.270Z,81.21
2017-07-11T20:56:26.509Z,81.25
2017-07-11T20:58:59.201Z,81.37
2017-07-11T21:01:31.537Z,81.81
2017-07-11T21:04:03.792Z,81.51
2017-07-11T21:06:42.953Z,82.06
2017-07-11T21:09:15.604Z,81.88
2017-07-11T21:11:48.377Z,82.18
2017-07-11T21:14:20.438Z,82.40
2017-07-11T21:16:52.837Z,82.82
2017-07-11T21:19:25.205Z,82.64
2017-07-11T21:21:57.778Z,82.97
2017-07-11T21:24:30.131Z,83.05
2017-07-11T21:27:02.697Z,82.72
2017-07-11T21:29:34.933Z,81.91
2017-07-11T21:32:07.772Z,81.94
2017-07-11T21:34:39.681Z,82.38
2017-07-11T21:37:12.020Z,82.84
2017-07-11T21:39:44.461Z,83.06
2017-07-11T21:42:16.956Z,83.25
2017-07-11T21:44:49.327Z,83.26
2017-07-11T21:47:21.758Z,83.14
2017-07-11T21:49:54.589Z,83.07
2017-07-11T21:52:26.609Z,82.99
2017-07-11T21:54:58.988Z,82.96
2017-07-11T21:57:31.371Z,83.14
2017-07-11T22:00:03.785Z,83.14
2017-07-11T22:02:36.160Z,82.88
2017-07-11T22:05:08.727Z,82.53
2017-07-11T22:07:42.054Z,82.24
2017-07-11T22:10:14.493Z,82.18
2017-07-11T22:12:46.922Z,82.54
2017-07-11T22:15:19.356Z,82.61
2017-07-11T22:17:52.356Z,82.74
2017-07-11T22:20:24.232Z,83.00
2017-07-11T22:22:56.830Z,82.58
2017-07-11T22:25:29.150Z,82.59
2017-07-11T22:28:01.473Z,82.19
2017-07-11T22:30:34.200Z,81.96
2017-07-11T22:33:06.295Z,82.22
2017-07-11T22:35:38.729Z,82.50
2017-07-11T22:38:11.422Z,82.56
2017-07-11T22:40:45.186Z,82.53
2017-07-11T22:43:17.024Z,82.55
2017-07-11T22:45:49.458Z,82.53
2017-07-11T22:48:21.807Z,82.11
2017-07-11T22:50:54.140Z,81.70
2017-07-11T22:53:26.546Z,80.98
2017-07-11T22:55:58.909Z,81.00
2017-07-11T22:58:31.368Z,80.88
2017-07-11T23:01:04.588Z,81.09
2017-07-11T23:03:37.228Z,81.10
2017-07-11T23:06:09.993Z,81.24
2017-07-11T23:08:43.017Z,80.84
2017-07-11T23:11:15.438Z,81.51
2017-07-11T23:13:47.900Z,81.42
2017-07-11T23:16:20.216Z,81.12
2017-07-11T23:18:52.716Z,81.35
2017-07-11T23:21:24.898Z,81.77
2017-07-11T23:23:57.397Z,81.73
2017-07-11T23:26:29.617Z,81.46
2017-07-11T23:29:01.965Z,81.62
2017-07-11T23:31:34.419Z,81.82
2017-07-11T23:34:06.845Z,81.76
2017-07-11T23:36:39.189Z,81.89
2017-07-11T23:39:11.573Z,81.62
2017-07-11T23:41:43.998Z,81.38
2017-07-11T23:44:16.340Z,81.96
2017-07-11T23:46:48.765Z,82.42
2017-07-11T23:49:21.094Z,81.80
2017-07-11T23:51:53.548Z,82.02
2017-07-11T23:54:25.976Z,81.62
2017-07-11T23:56:58.396Z,81.84
2017-07-11T23:59:30.769Z,81.82
